createdAt,value
2018-11-07T00:00:00.608Z,0
2018-11-07T00:01:02.638Z,0
2018-11-07T00:02:04.653Z,0
2018-11-07T00:03:06.677Z,0
2018-11-07T00:04:08.692Z,0
2018-11-07T00:05:11.299Z,0
2018-11-07T00:06:13.314Z,0
2018-11-07T00:07:15.339Z,0
2018-11-07T00:08:18.059Z,0
2018-11-07T00:09:19.894Z,0
2018-11-07T00:10:21.916Z,0
2018-11-07T00:11:23.933Z,0
2018-11-07T00:12:26.238Z,0
2018-11-07T00:13:28.659Z,0
2018-11-07T00:14:30.682Z,0
2018-11-07T00:15:32.713Z,0
2018-11-07T00:16:35.015Z,0
2018-11-07T00:17:37.314Z,0
2018-11-07T00:18:39.331Z,0
2018-11-07T00:19:41.647Z,0
2018-11-07T00:20:44.053Z,0
2018-11-07T00:21:46.077Z,0
2018-11-07T00:22:48.111Z,0
2018-11-07T00:23:50.127Z,0
2018-11-07T00:24:52.162Z,0
2018-11-07T00:25:54.185Z,0
2018-11-07T00:26:56.205Z,0
2018-11-07T00:27:58.505Z,0
2018-11-07T00:29:00.538Z,0
2018-11-07T00:30:02.976Z,0
2018-11-07T00:31:04.970Z,0
2018-11-07T00:32:07.296Z,0
2018-11-07T00:33:09.311Z,0
2018-11-07T00:34:11.344Z,0
2018-11-07T00:35:13.913Z,0
2018-11-07T00:36:16.241Z,0
2018-11-07T00:37:18.639Z,0
2018-11-07T00:38:20.666Z,0
2018-11-07T00:39:22.692Z,0
2018-11-07T00:40:24.719Z,0
2018-11-07T00:41:27.136Z,0
2018-11-07T00:42:29.281Z,0
2018-11-07T00:43:31.177Z,0
2018-11-07T00:44:33.492Z,0
2018-11-07T00:45:35.516Z,0
2018-11-07T00:46:37.537Z,0
2018-11-07T00:47:39.558Z,0
2018-11-07T00:48:41.876Z,0
2018-11-07T00:49:43.894Z,0
2018-11-07T00:50:45.924Z,0
2018-11-07T00:51:48.533Z,0
2018-11-07T00:52:50.548Z,0
2018-11-07T00:53:52.579Z,0
2018-11-07T00:54:54.987Z,0
2018-11-07T00:55:57.011Z,0
2018-11-07T00:56:59.036Z,0
2018-11-07T00:58:01.126Z,0
2018-11-07T00:59:03.077Z,0
2018-11-07T01:00:05.094Z,0
2018-11-07T01:01:07.125Z,0
2018-11-07T01:02:09.135Z,0
2018-11-07T01:03:11.446Z,0
2018-11-07T01:04:13.466Z,0
2018-11-07T01:05:15.805Z,0
2018-11-07T01:06:17.841Z,0
2018-11-07T01:07:19.852Z,0
2018-11-07T01:08:21.878Z,0
2018-11-07T01:09:23.945Z,0
2018-11-07T01:10:26.298Z,0
2018-11-07T01:11:28.317Z,0
2018-11-07T01:12:30.336Z,0
2018-11-07T01:13:32.697Z,0
2018-11-07T01:14:34.767Z,0
2018-11-07T01:15:36.801Z,0
2018-11-07T01:16:39.329Z,0
2018-11-07T01:17:41.888Z,0
2018-11-07T01:18:43.910Z,0
2018-11-07T01:19:46.232Z,0
2018-11-07T01:20:48.548Z,0
2018-11-07T01:21:50.577Z,0
2018-11-07T01:22:52.599Z,0
2018-11-07T01:23:54.618Z,0
2018-11-07T01:24:56.640Z,0
2018-11-07T01:25:58.966Z,0
2018-11-07T01:27:00.994Z,0
2018-11-07T01:28:03.066Z,0
2018-11-07T01:29:05.409Z,0
2018-11-07T01:30:07.437Z,0
2018-11-07T01:31:09.833Z,0
2018-11-07T01:32:11.906Z,0
2018-11-07T01:33:13.875Z,0
2018-11-07T01:34:15.900Z,0
2018-11-07T01:35:17.910Z,0
2018-11-07T01:36:19.934Z,0
2018-11-07T01:37:21.954Z,0
2018-11-07T01:38:24.554Z,0
2018-11-07T01:39:26.870Z,0
2018-11-07T01:40:29.276Z,0
2018-11-07T01:41:31.593Z,0
2018-11-07T01:42:33.614Z,0
2018-11-07T01:43:35.650Z,0
2018-11-07T01:44:37.662Z,0
2018-11-07T01:45:39.683Z,0
2018-11-07T01:46:41.703Z,0
2018-11-07T01:47:44.001Z,0
2018-11-07T01:48:46.026Z,0
2018-11-07T01:49:48.045Z,0
2018-11-07T01:50:50.353Z,0
2018-11-07T01:51:52.369Z,0
2018-11-07T01:52:54.397Z,0
2018-11-07T01:53:56.755Z,0
2018-11-07T01:54:58.781Z,0
2018-11-07T01:56:00.801Z,0
2018-11-07T01:57:02.819Z,0
2018-11-07T01:58:04.840Z,0
2018-11-07T01:59:06.863Z,0
2018-11-07T02:00:09.162Z,0
2018-11-07T02:01:11.183Z,0
2018-11-07T02:02:13.204Z,0
2018-11-07T02:03:15.221Z,0
2018-11-07T02:04:17.253Z,0
2018-11-07T02:05:19.274Z,0
2018-11-07T02:06:21.292Z,0
2018-11-07T02:07:23.304Z,0
2018-11-07T02:08:25.335Z,0
2018-11-07T02:09:27.358Z,0
2018-11-07T02:10:29.377Z,0
2018-11-07T02:11:31.407Z,0
2018-11-07T02:12:33.420Z,0
2018-11-07T02:13:35.447Z,0
2018-11-07T02:14:37.786Z,0
2018-11-07T02:15:39.775Z,0
2018-11-07T02:16:42.073Z,0
2018-11-07T02:17:44.403Z,0
2018-11-07T02:18:46.416Z,0
2018-11-07T02:19:48.436Z,0
2018-11-07T02:20:50.465Z,0
2018-11-07T02:21:52.481Z,0
2018-11-07T02:22:54.500Z,0
2018-11-07T02:23:56.811Z,0
2018-11-07T02:24:58.836Z,0
2018-11-07T02:26:01.525Z,0
2018-11-07T02:27:04.214Z,0
2018-11-07T02:28:06.614Z,0
2018-11-07T02:29:08.639Z,0
2018-11-07T02:30:11.753Z,0
2018-11-07T02:31:14.154Z,0
2018-11-07T02:32:16.465Z,0
2018-11-07T02:33:18.497Z,0
2018-11-07T02:34:20.816Z,0
2018-11-07T02:35:23.232Z,0
2018-11-07T02:36:25.249Z,0
2018-11-07T02:37:27.968Z,0
2018-11-07T02:38:30.667Z,0
2018-11-07T02:39:32.689Z,0
2018-11-07T02:40:35.099Z,0
2018-11-07T02:41:37.133Z,0
2018-11-07T02:42:39.137Z,0
2018-11-07T02:43:41.543Z,0
2018-11-07T02:44:43.961Z,0
2018-11-07T02:45:46.557Z,0
2018-11-07T02:46:48.580Z,0
2018-11-07T02:47:50.903Z,0
2018-11-07T02:48:52.922Z,0
2018-11-07T02:49:55.603Z,0
2018-11-07T02:50:58.209Z,0
2018-11-07T02:52:00.521Z,0
2018-11-07T02:53:02.933Z,0
2018-11-07T02:54:04.960Z,0
2018-11-07T02:55:07.259Z,0
2018-11-07T02:56:09.278Z,0
2018-11-07T02:57:11.314Z,0
2018-11-07T02:58:13.634Z,0
2018-11-07T02:59:15.953Z,0
2018-11-07T03:00:18.364Z,0
2018-11-07T03:01:20.481Z,0
2018-11-07T03:02:22.405Z,0
2018-11-07T03:03:24.482Z,0
2018-11-07T03:04:27.303Z,0
2018-11-07T03:05:29.317Z,0
2018-11-07T03:06:31.350Z,0
2018-11-07T03:07:33.372Z,0
2018-11-07T03:08:35.707Z,0
2018-11-07T03:09:37.735Z,0
2018-11-07T03:10:40.735Z,0
2018-11-07T03:11:42.653Z,0
2018-11-07T03:12:45.339Z,0
2018-11-07T03:13:47.750Z,0
2018-11-07T03:14:49.760Z,0
2018-11-07T03:15:52.077Z,0
2018-11-07T03:16:54.096Z,0
2018-11-07T03:17:56.115Z,0
2018-11-07T03:18:58.435Z,0
2018-11-07T03:20:00.737Z,0
2018-11-07T03:21:03.053Z,0
2018-11-07T03:22:05.073Z,0
2018-11-07T03:23:07.104Z,0
2018-11-07T03:24:09.131Z,0
2018-11-07T03:25:11.144Z,0
2018-11-07T03:26:13.465Z,0
2018-11-07T03:27:16.145Z,0
2018-11-07T03:28:18.170Z,0
2018-11-07T03:29:20.198Z,0
2018-11-07T03:30:22.776Z,0
2018-11-07T03:31:25.388Z,0
2018-11-07T03:32:27.722Z,0
2018-11-07T03:33:29.746Z,0
2018-11-07T03:34:32.169Z,0
2018-11-07T03:35:34.185Z,0
2018-11-07T03:36:36.505Z,0
2018-11-07T03:37:38.822Z,0
2018-11-07T03:38:40.847Z,0
2018-11-07T03:39:43.347Z,0
2018-11-07T03:40:45.614Z,0
2018-11-07T03:41:47.648Z,0
2018-11-07T03:42:49.659Z,0
2018-11-07T03:43:51.689Z,0
2018-11-07T03:44:54.094Z,0
2018-11-07T03:45:56.116Z,0
2018-11-07T03:46:58.445Z,0
2018-11-07T03:48:00.474Z,0
2018-11-07T03:49:02.780Z,0
2018-11-07T03:50:05.084Z,0
2018-11-07T03:51:07.104Z,0
2018-11-07T03:52:09.116Z,0
2018-11-07T03:53:11.157Z,0
2018-11-07T03:54:13.444Z,0
2018-11-07T03:55:15.465Z,0
2018-11-07T03:56:18.050Z,0
2018-11-07T03:57:20.078Z,0
2018-11-07T03:58:22.384Z,0
2018-11-07T03:59:24.407Z,0
2018-11-07T04:00:26.703Z,0
2018-11-07T04:01:28.727Z,0
2018-11-07T04:02:30.750Z,0
2018-11-07T04:03:33.168Z,0
2018-11-07T04:04:35.475Z,0
2018-11-07T04:05:37.494Z,0
2018-11-07T04:06:40.082Z,0
2018-11-07T04:07:42.111Z,0
2018-11-07T04:08:44.415Z,0
2018-11-07T04:09:46.429Z,0
2018-11-07T04:10:48.455Z,0
2018-11-07T04:11:50.476Z,0
2018-11-07T04:12:52.486Z,0
2018-11-07T04:13:54.801Z,0
2018-11-07T04:14:56.820Z,0
2018-11-07T04:15:59.518Z,0
2018-11-07T04:17:01.845Z,0
2018-11-07T04:18:03.865Z,0
2018-11-07T04:19:06.186Z,0
2018-11-07T04:20:08.871Z,0
2018-11-07T04:21:10.903Z,0
2018-11-07T04:22:12.917Z,0
2018-11-07T04:23:15.334Z,0
2018-11-07T04:24:17.737Z,0
2018-11-07T04:25:19.745Z,0
2018-11-07T04:26:21.773Z,0
2018-11-07T04:27:23.793Z,0
2018-11-07T04:28:26.199Z,0
2018-11-07T04:29:28.490Z,0
2018-11-07T04:30:30.809Z,0
2018-11-07T04:31:33.114Z,0
2018-11-07T04:32:35.704Z,0
2018-11-07T04:33:37.734Z,0
2018-11-07T04:34:40.065Z,0
2018-11-07T04:35:42.376Z,0
2018-11-07T04:36:44.393Z,0
2018-11-07T04:37:46.414Z,0
2018-11-07T04:38:48.440Z,0
2018-11-07T04:39:50.749Z,0
2018-11-07T04:40:52.775Z,0
2018-11-07T04:41:54.809Z,0
2018-11-07T04:42:57.132Z,0
2018-11-07T04:43:59.156Z,0
2018-11-07T04:45:01.780Z,0
2018-11-07T04:46:04.074Z,0
2018-11-07T04:47:06.377Z,0
2018-11-07T04:48:08.406Z,0
2018-11-07T04:49:10.419Z,0
2018-11-07T04:50:12.451Z,0
2018-11-07T04:51:14.865Z,0
2018-11-07T04:52:17.201Z,0
2018-11-07T04:53:19.501Z,0
2018-11-07T04:54:22.216Z,0
2018-11-07T04:55:24.232Z,0
2018-11-07T04:56:26.246Z,0
2018-11-07T04:57:28.274Z,0
2018-11-07T04:58:30.289Z,0
2018-11-07T04:59:32.309Z,0
2018-11-07T05:00:34.330Z,0
2018-11-07T05:01:36.352Z,0
2018-11-07T05:02:38.361Z,0
2018-11-07T05:03:40.387Z,0
2018-11-07T05:04:42.411Z,0
2018-11-07T05:05:44.431Z,0
2018-11-07T05:06:46.461Z,0
2018-11-07T05:07:48.527Z,0
2018-11-07T05:08:50.854Z,0
2018-11-07T05:09:52.878Z,0
2018-11-07T05:10:54.898Z,0
2018-11-07T05:11:57.300Z,0
2018-11-07T05:12:59.319Z,0
2018-11-07T05:14:01.351Z,0
2018-11-07T05:15:03.660Z,0
2018-11-07T05:16:05.677Z,0
2018-11-07T05:17:07.992Z,0
2018-11-07T05:18:10.019Z,0
2018-11-07T05:19:12.024Z,0
2018-11-07T05:20:14.042Z,0
2018-11-07T05:21:16.065Z,0
2018-11-07T05:22:18.076Z,0
2018-11-07T05:23:20.105Z,0
2018-11-07T05:24:22.509Z,0
2018-11-07T05:25:24.818Z,0
2018-11-07T05:26:27.227Z,0
2018-11-07T05:27:29.251Z,0
2018-11-07T05:28:31.268Z,0
2018-11-07T05:29:33.573Z,0
2018-11-07T05:30:35.596Z,0
2018-11-07T05:31:37.995Z,0
2018-11-07T05:32:40.020Z,0
2018-11-07T05:33:42.041Z,0
2018-11-07T05:34:44.060Z,0
2018-11-07T05:35:46.069Z,0
2018-11-07T05:36:48.095Z,0
2018-11-07T05:37:50.113Z,0
2018-11-07T05:38:52.135Z,0
2018-11-07T05:39:54.169Z,0
2018-11-07T05:40:56.256Z,0
2018-11-07T05:41:58.210Z,0
2018-11-07T05:43:00.230Z,0
2018-11-07T05:44:02.252Z,0
2018-11-07T05:45:04.269Z,0
2018-11-07T05:46:06.286Z,0
2018-11-07T05:47:08.300Z,0
2018-11-07T05:48:10.317Z,0
2018-11-07T05:49:13.042Z,0
2018-11-07T05:50:14.941Z,0
2018-11-07T05:51:16.953Z,0
2018-11-07T05:52:18.987Z,0
2018-11-07T05:53:21.004Z,0
2018-11-07T05:54:23.023Z,0
2018-11-07T05:55:25.049Z,0
2018-11-07T05:56:27.054Z,0
2018-11-07T05:57:29.071Z,0
2018-11-07T05:58:31.090Z,0
2018-11-07T05:59:33.113Z,0
2018-11-07T06:00:35.122Z,0
2018-11-07T06:01:37.145Z,0
2018-11-07T06:02:39.547Z,0
2018-11-07T06:03:41.565Z,0
2018-11-07T06:04:43.895Z,0
2018-11-07T06:05:45.910Z,0
2018-11-07T06:06:48.316Z,0
2018-11-07T06:07:50.618Z,0
2018-11-07T06:08:53.033Z,0
2018-11-07T06:09:55.045Z,0
2018-11-07T06:10:57.447Z,0
2018-11-07T06:11:59.464Z,0
2018-11-07T06:13:01.754Z,0
2018-11-07T06:14:03.777Z,0
2018-11-07T06:15:05.800Z,0
2018-11-07T06:16:07.884Z,0
2018-11-07T06:17:10.409Z,0
2018-11-07T06:18:12.431Z,0
2018-11-07T06:19:14.450Z,0
2018-11-07T06:20:17.148Z,0
2018-11-07T06:21:19.552Z,1
2018-11-07T06:22:21.568Z,1
2018-11-07T06:23:23.588Z,1
2018-11-07T06:24:25.691Z,1
2018-11-07T06:25:27.624Z,1
2018-11-07T06:26:29.644Z,1
2018-11-07T06:27:31.661Z,1
2018-11-07T06:28:33.973Z,1
2018-11-07T06:29:35.981Z,1
2018-11-07T06:30:37.997Z,1
2018-11-07T06:31:40.017Z,2
2018-11-07T06:32:42.424Z,2
2018-11-07T06:33:44.711Z,2
2018-11-07T06:34:46.735Z,2
2018-11-07T06:35:49.703Z,2
2018-11-07T06:36:52.006Z,2
2018-11-07T06:37:54.602Z,2
2018-11-07T06:38:56.617Z,2
2018-11-07T06:39:58.637Z,2
2018-11-07T06:41:00.659Z,3
2018-11-07T06:42:02.686Z,3
2018-11-07T06:43:05.273Z,3
2018-11-07T06:44:07.575Z,3
2018-11-07T06:45:09.596Z,3
2018-11-07T06:46:11.900Z,3
2018-11-07T06:47:14.224Z,3
2018-11-07T06:48:16.243Z,4
2018-11-07T06:49:18.255Z,4
2018-11-07T06:50:20.277Z,4
2018-11-07T06:51:22.300Z,4
2018-11-07T06:52:24.323Z,4
2018-11-07T06:53:26.348Z,5
2018-11-07T06:54:28.649Z,5
2018-11-07T06:55:31.056Z,5
2018-11-07T06:56:33.071Z,5
2018-11-07T06:57:35.096Z,5
2018-11-07T06:58:37.105Z,6
2018-11-07T06:59:39.121Z,6
2018-11-07T07:00:41.136Z,6
2018-11-07T07:01:43.151Z,7
2018-11-07T07:02:46.147Z,7
2018-11-07T07:03:48.451Z,7
2018-11-07T07:04:50.465Z,8
2018-11-07T07:05:52.481Z,8
2018-11-07T07:06:54.499Z,9
2018-11-07T07:07:56.526Z,8
2018-11-07T07:08:58.548Z,9
2018-11-07T07:10:00.861Z,9
2018-11-07T07:11:03.175Z,9
2018-11-07T07:12:05.191Z,9
2018-11-07T07:13:07.495Z,9
2018-11-07T07:14:09.793Z,10
2018-11-07T07:15:12.112Z,11
2018-11-07T07:16:14.132Z,10
2018-11-07T07:17:16.151Z,10
2018-11-07T07:18:18.174Z,10
2018-11-07T07:19:20.588Z,10
2018-11-07T07:20:22.617Z,10
2018-11-07T07:21:24.635Z,11
2018-11-07T07:22:27.318Z,11
2018-11-07T07:23:29.336Z,12
2018-11-07T07:24:31.358Z,13
2018-11-07T07:25:33.820Z,13
2018-11-07T07:26:35.788Z,13
2018-11-07T07:27:37.807Z,13
2018-11-07T07:28:39.822Z,14
2018-11-07T07:29:41.861Z,14
2018-11-07T07:30:43.866Z,14
2018-11-07T07:31:46.156Z,14
2018-11-07T07:32:48.556Z,15
2018-11-07T07:33:51.111Z,15
2018-11-07T07:34:52.999Z,16
2018-11-07T07:35:55.026Z,15
2018-11-07T07:36:57.045Z,16
2018-11-07T07:37:59.067Z,17
2018-11-07T07:39:01.797Z,17
2018-11-07T07:40:04.115Z,17
2018-11-07T07:41:06.133Z,17
2018-11-07T07:42:08.173Z,17
2018-11-07T07:43:10.179Z,20
2018-11-07T07:44:12.201Z,20
2018-11-07T07:45:14.599Z,19
2018-11-07T07:46:16.911Z,20
2018-11-07T07:47:18.931Z,20
2018-11-07T07:48:20.961Z,22
2018-11-07T07:49:23.596Z,19
2018-11-07T07:50:25.773Z,18
2018-11-07T07:51:27.790Z,19
2018-11-07T07:52:30.139Z,17
2018-11-07T07:53:32.510Z,18
2018-11-07T07:54:34.528Z,18
2018-11-07T07:55:36.544Z,17
2018-11-07T07:56:38.849Z,19
2018-11-07T07:57:41.270Z,19
2018-11-07T07:58:43.293Z,20
2018-11-07T07:59:45.319Z,20
2018-11-07T08:00:47.339Z,20
2018-11-07T08:01:50.101Z,21
2018-11-07T08:02:52.122Z,21
2018-11-07T08:03:54.456Z,23
2018-11-07T08:04:57.028Z,23
2018-11-07T08:05:59.053Z,23
2018-11-07T08:07:01.480Z,24
2018-11-07T08:08:03.386Z,23
2018-11-07T08:09:06.133Z,24
2018-11-07T08:10:08.110Z,25
2018-11-07T08:11:10.133Z,23
2018-11-07T08:12:12.150Z,24
2018-11-07T08:13:14.175Z,25
2018-11-07T08:14:16.187Z,24
2018-11-07T08:15:18.207Z,25
2018-11-07T08:16:20.231Z,24
2018-11-07T08:17:22.240Z,24
2018-11-07T08:18:24.269Z,27
2018-11-07T08:19:26.597Z,26
2018-11-07T08:20:28.919Z,25
2018-11-07T08:21:30.921Z,26
2018-11-07T08:22:32.942Z,28
2018-11-07T08:23:34.962Z,29
2018-11-07T08:24:36.983Z,29
2018-11-07T08:25:39.012Z,29
2018-11-07T08:26:41.305Z,29
2018-11-07T08:27:43.613Z,26
2018-11-07T08:28:45.641Z,29
2018-11-07T08:29:47.662Z,32
2018-11-07T08:30:50.089Z,29
2018-11-07T08:31:52.321Z,29
2018-11-07T08:32:54.724Z,28
2018-11-07T08:33:57.435Z,35
2018-11-07T08:34:59.849Z,33
2018-11-07T08:36:02.159Z,34
2018-11-07T08:37:04.455Z,28
2018-11-07T08:38:06.691Z,30
2018-11-07T08:39:09.000Z,34
2018-11-07T08:40:11.303Z,39
2018-11-07T08:41:13.332Z,34
2018-11-07T08:42:15.395Z,29
2018-11-07T08:43:17.784Z,31
2018-11-07T08:44:19.808Z,32
2018-11-07T08:45:21.838Z,31
2018-11-07T08:46:23.851Z,35
2018-11-07T08:47:25.879Z,27
2018-11-07T08:48:28.193Z,33
2018-11-07T08:49:30.220Z,27
2018-11-07T08:50:32.641Z,41
2018-11-07T08:51:34.684Z,27
2018-11-07T08:52:36.998Z,30
2018-11-07T08:53:39.024Z,34
2018-11-07T08:54:41.054Z,32
2018-11-07T08:55:43.378Z,40
2018-11-07T08:56:45.699Z,29
2018-11-07T08:57:47.721Z,29
2018-11-07T08:58:49.735Z,32
2018-11-07T08:59:52.056Z,32
2018-11-07T09:00:54.078Z,29
2018-11-07T09:01:56.477Z,30
2018-11-07T09:02:58.861Z,36
2018-11-07T09:04:00.873Z,38
2018-11-07T09:05:03.191Z,31
2018-11-07T09:06:05.619Z,31
2018-11-07T09:07:07.647Z,42
2018-11-07T09:08:09.678Z,59
2018-11-07T09:09:11.701Z,47
2018-11-07T09:10:13.727Z,39
2018-11-07T09:11:16.040Z,30
2018-11-07T09:12:18.066Z,38
2018-11-07T09:13:20.083Z,47
2018-11-07T09:14:22.505Z,47
2018-11-07T09:15:24.813Z,44
2018-11-07T09:16:26.831Z,49
2018-11-07T09:17:28.854Z,51
2018-11-07T09:18:30.913Z,64
2018-11-07T09:19:32.925Z,62
2018-11-07T09:20:34.953Z,42
2018-11-07T09:21:37.358Z,39
2018-11-07T09:22:39.376Z,44
2018-11-07T09:23:41.693Z,48
2018-11-07T09:24:43.713Z,80
2018-11-07T09:25:45.738Z,61
2018-11-07T09:26:47.760Z,43
2018-11-07T09:27:49.791Z,39
2018-11-07T09:28:51.806Z,50
2018-11-07T09:29:54.213Z,71
2018-11-07T09:30:56.235Z,74
2018-11-07T09:31:58.252Z,72
2018-11-07T09:33:00.276Z,57
2018-11-07T09:34:02.585Z,57
2018-11-07T09:35:04.901Z,73
2018-11-07T09:36:07.226Z,66
2018-11-07T09:37:09.255Z,53
2018-11-07T09:38:11.279Z,43
2018-11-07T09:39:13.296Z,48
2018-11-07T09:40:15.318Z,45
2018-11-07T09:41:17.347Z,44
2018-11-07T09:42:19.663Z,47
2018-11-07T09:43:22.067Z,43
2018-11-07T09:44:24.098Z,57
2018-11-07T09:45:26.123Z,54
2018-11-07T09:46:28.144Z,56
2018-11-07T09:47:30.685Z,79
2018-11-07T09:48:32.545Z,77
2018-11-07T09:49:34.563Z,84
2018-11-07T09:50:36.972Z,129
2018-11-07T09:51:39.000Z,118
2018-11-07T09:52:41.397Z,101
2018-11-07T09:53:43.436Z,113
2018-11-07T09:54:45.744Z,78
2018-11-07T09:55:47.761Z,87
2018-11-07T09:56:50.099Z,99
2018-11-07T09:57:52.118Z,85
2018-11-07T09:58:54.431Z,92
2018-11-07T09:59:56.453Z,74
2018-11-07T10:00:58.487Z,68
2018-11-07T10:02:00.511Z,80
2018-11-07T10:03:02.923Z,105
2018-11-07T10:04:04.948Z,81
2018-11-07T10:05:06.961Z,81
2018-11-07T10:06:08.994Z,111
2018-11-07T10:07:11.016Z,119
2018-11-07T10:08:13.037Z,114
2018-11-07T10:09:15.060Z,72
2018-11-07T10:10:17.094Z,96
2018-11-07T10:11:19.124Z,80
2018-11-07T10:12:21.212Z,95
2018-11-07T10:13:23.849Z,103
2018-11-07T10:14:25.867Z,148
2018-11-07T10:15:27.892Z,150
2018-11-07T10:16:29.918Z,182
2018-11-07T10:17:32.633Z,148
2018-11-07T10:18:34.656Z,187
2018-11-07T10:19:36.685Z,96
2018-11-07T10:20:39.608Z,168
2018-11-07T10:21:41.499Z,198
2018-11-07T10:22:43.528Z,196
2018-11-07T10:23:45.941Z,187
2018-11-07T10:24:47.970Z,168
2018-11-07T10:25:49.998Z,175
2018-11-07T10:26:52.145Z,124
2018-11-07T10:27:54.546Z,165
2018-11-07T10:28:56.973Z,198
2018-11-07T10:29:59.187Z,164
2018-11-07T10:31:00.867Z,204
2018-11-07T10:32:03.575Z,205
2018-11-07T10:33:05.909Z,213
2018-11-07T10:34:07.952Z,209
2018-11-07T10:35:09.971Z,208
2018-11-07T10:36:12.007Z,198
2018-11-07T10:37:14.040Z,167
2018-11-07T10:38:16.844Z,196
2018-11-07T10:39:18.783Z,198
2018-11-07T10:40:21.205Z,191
2018-11-07T10:41:23.230Z,194
2018-11-07T10:42:25.265Z,184
2018-11-07T10:43:27.305Z,197
2018-11-07T10:44:29.400Z,195
2018-11-07T10:45:31.370Z,95
2018-11-07T10:46:33.681Z,113
2018-11-07T10:47:36.375Z,140
2018-11-07T10:48:38.790Z,145
2018-11-07T10:49:40.827Z,132
2018-11-07T10:50:42.851Z,164
2018-11-07T10:51:45.304Z,184
2018-11-07T10:52:47.269Z,212
2018-11-07T10:53:49.296Z,190
2018-11-07T10:54:51.634Z,181
2018-11-07T10:55:53.667Z,212
2018-11-07T10:56:55.703Z,214
2018-11-07T10:57:57.731Z,189
2018-11-07T10:58:59.774Z,105
2018-11-07T11:00:01.802Z,77
2018-11-07T11:01:03.832Z,115
2018-11-07T11:02:05.871Z,154
2018-11-07T11:03:07.896Z,76
2018-11-07T11:04:09.938Z,59
2018-11-07T11:05:12.019Z,73
2018-11-07T11:06:14.010Z,73
2018-11-07T11:07:16.038Z,71
2018-11-07T11:08:18.353Z,70
2018-11-07T11:09:20.774Z,81
2018-11-07T11:10:22.813Z,72
2018-11-07T11:11:24.972Z,79
2018-11-07T11:12:26.890Z,63
2018-11-07T11:13:28.922Z,62
2018-11-07T11:14:31.248Z,78
2018-11-07T11:15:33.284Z,70
2018-11-07T11:16:35.601Z,117
2018-11-07T11:17:37.625Z,99
2018-11-07T11:18:39.654Z,119
2018-11-07T11:19:41.685Z,143
2018-11-07T11:20:43.726Z,76
2018-11-07T11:21:45.758Z,101
2018-11-07T11:22:47.783Z,71
2018-11-07T11:23:50.144Z,66
2018-11-07T11:24:52.468Z,70
2018-11-07T11:25:54.930Z,67
2018-11-07T11:26:57.154Z,90
2018-11-07T11:27:59.177Z,114
2018-11-07T11:29:01.495Z,67
2018-11-07T11:30:04.500Z,61
2018-11-07T11:31:06.534Z,52
2018-11-07T11:32:08.864Z,50
2018-11-07T11:33:10.884Z,37
2018-11-07T11:34:13.838Z,47
2018-11-07T11:35:15.776Z,42
2018-11-07T11:36:17.884Z,43
2018-11-07T11:37:19.920Z,62
2018-11-07T11:38:22.334Z,55
2018-11-07T11:39:24.365Z,36
2018-11-07T11:40:26.433Z,34
2018-11-07T11:41:28.417Z,39
2018-11-07T11:42:30.449Z,41
2018-11-07T11:43:32.477Z,52
2018-11-07T11:44:34.520Z,77
2018-11-07T11:45:36.544Z,90
2018-11-07T11:46:38.574Z,114
2018-11-07T11:47:40.994Z,146
2018-11-07T11:48:43.411Z,201
2018-11-07T11:49:45.726Z,154
2018-11-07T11:50:47.753Z,110
2018-11-07T11:51:49.774Z,70
2018-11-07T11:52:51.802Z,81
2018-11-07T11:53:53.836Z,103
2018-11-07T11:54:55.865Z,132
2018-11-07T11:55:57.891Z,100
2018-11-07T11:57:00.219Z,68
2018-11-07T11:58:02.250Z,75
2018-11-07T11:59:04.939Z,99
2018-11-07T12:00:08.160Z,64
2018-11-07T12:01:10.899Z,64
2018-11-07T12:02:12.968Z,89
2018-11-07T12:03:15.243Z,76
2018-11-07T12:04:17.279Z,92
2018-11-07T12:05:19.934Z,63
2018-11-07T12:06:22.014Z,55
2018-11-07T12:07:24.378Z,73
2018-11-07T12:08:26.443Z,92
2018-11-07T12:09:28.807Z,64
2018-11-07T12:10:30.839Z,77
2018-11-07T12:11:32.867Z,121
2018-11-07T12:12:34.897Z,93
2018-11-07T12:13:36.916Z,75
2018-11-07T12:14:38.958Z,73
2018-11-07T12:15:41.893Z,68
2018-11-07T12:16:44.516Z,82
2018-11-07T12:17:46.643Z,83
2018-11-07T12:18:48.577Z,95
2018-11-07T12:19:50.611Z,62
2018-11-07T12:20:52.645Z,65
2018-11-07T12:21:54.674Z,65
2018-11-07T12:22:56.979Z,92
2018-11-07T12:23:59.291Z,109
2018-11-07T12:25:01.316Z,137
2018-11-07T12:26:03.346Z,138
2018-11-07T12:27:05.383Z,140
2018-11-07T12:28:07.412Z,123
2018-11-07T12:29:09.438Z,120
2018-11-07T12:30:11.863Z,124
2018-11-07T12:31:14.230Z,125
2018-11-07T12:32:16.261Z,108
2018-11-07T12:33:18.298Z,111
2018-11-07T12:34:20.603Z,119
2018-11-07T12:35:23.221Z,127
2018-11-07T12:36:25.306Z,141
2018-11-07T12:37:27.288Z,138
2018-11-07T12:38:29.304Z,123
2018-11-07T12:39:31.339Z,120
2018-11-07T12:40:33.375Z,129
2018-11-07T12:41:35.396Z,107
2018-11-07T12:42:37.478Z,105
2018-11-07T12:43:39.457Z,94
2018-11-07T12:44:41.775Z,91
2018-11-07T12:45:44.085Z,97
2018-11-07T12:46:46.126Z,100
2018-11-07T12:47:48.156Z,121
2018-11-07T12:48:50.182Z,118
2018-11-07T12:49:52.363Z,120
2018-11-07T12:50:54.251Z,132
2018-11-07T12:51:56.559Z,123
2018-11-07T12:52:58.591Z,85
2018-11-07T12:54:00.624Z,76
2018-11-07T12:55:02.939Z,73
2018-11-07T12:56:04.967Z,62
2018-11-07T12:57:07.385Z,60
2018-11-07T12:58:10.164Z,58
2018-11-07T12:59:12.924Z,64
2018-11-07T13:00:14.985Z,85
2018-11-07T13:01:17.284Z,59
2018-11-07T13:02:19.702Z,53
2018-11-07T13:03:22.025Z,54
2018-11-07T13:04:24.076Z,53
2018-11-07T13:05:26.372Z,53
2018-11-07T13:06:28.409Z,53
2018-11-07T13:07:30.427Z,52
2018-11-07T13:08:32.458Z,52
2018-11-07T13:09:34.486Z,53
2018-11-07T13:10:36.806Z,67
2018-11-07T13:11:38.827Z,64
2018-11-07T13:12:40.881Z,55
2018-11-07T13:13:42.926Z,70
2018-11-07T13:14:44.968Z,67
2018-11-07T13:15:47.026Z,58
2018-11-07T13:16:49.084Z,63
2018-11-07T13:17:51.102Z,54
2018-11-07T13:18:53.412Z,56
2018-11-07T13:19:55.454Z,60
2018-11-07T13:20:57.475Z,55
2018-11-07T13:21:59.505Z,52
2018-11-07T13:23:01.831Z,58
2018-11-07T13:24:04.529Z,82
2018-11-07T13:25:06.566Z,56
2018-11-07T13:26:08.887Z,49
2018-11-07T13:27:11.297Z,43
2018-11-07T13:28:13.859Z,35
2018-11-07T13:29:15.851Z,32
2018-11-07T13:30:17.880Z,33
2018-11-07T13:31:20.245Z,32
2018-11-07T13:32:22.563Z,30
2018-11-07T13:33:24.585Z,29
2018-11-07T13:34:26.679Z,28
2018-11-07T13:35:28.654Z,27
2018-11-07T13:36:30.672Z,27
2018-11-07T13:37:33.825Z,27
2018-11-07T13:38:36.887Z,27
2018-11-07T13:39:39.390Z,27
2018-11-07T13:40:41.435Z,27
2018-11-07T13:41:43.771Z,26
2018-11-07T13:42:46.108Z,26
2018-11-07T13:43:48.133Z,26
2018-11-07T13:44:50.458Z,26
2018-11-07T13:45:52.539Z,26
2018-11-07T13:46:55.080Z,26
2018-11-07T13:47:57.109Z,26
2018-11-07T13:48:59.128Z,26
2018-11-07T13:50:01.458Z,26
2018-11-07T13:51:04.076Z,26
2018-11-07T13:52:06.107Z,25
2018-11-07T13:53:08.156Z,25
2018-11-07T13:54:10.543Z,25
2018-11-07T13:55:13.245Z,25
2018-11-07T13:56:15.272Z,25
2018-11-07T13:57:17.306Z,25
2018-11-07T13:58:19.899Z,25
2018-11-07T13:59:22.007Z,25
2018-11-07T14:00:24.242Z,26
2018-11-07T14:01:26.269Z,26
2018-11-07T14:02:28.292Z,26
2018-11-07T14:03:30.730Z,26
2018-11-07T14:04:32.681Z,26
2018-11-07T14:05:34.785Z,26
2018-11-07T14:06:36.767Z,26
2018-11-07T14:07:38.813Z,25
2018-11-07T14:08:40.873Z,25
2018-11-07T14:09:42.893Z,25
2018-11-07T14:10:44.923Z,25
2018-11-07T14:11:46.950Z,25
2018-11-07T14:12:49.256Z,25
2018-11-07T14:13:51.315Z,25
2018-11-07T14:14:53.611Z,25
2018-11-07T14:15:56.103Z,25
2018-11-07T14:16:58.103Z,24
2018-11-07T14:18:00.430Z,24
2018-11-07T14:19:02.452Z,24
2018-11-07T14:20:04.478Z,24
2018-11-07T14:21:06.902Z,24
2018-11-07T14:22:08.920Z,24
2018-11-07T14:23:11.244Z,24
2018-11-07T14:24:13.553Z,24
2018-11-07T14:25:15.582Z,24
2018-11-07T14:26:17.929Z,22
2018-11-07T14:27:20.346Z,22
2018-11-07T14:28:23.236Z,22
2018-11-07T14:29:25.085Z,22
2018-11-07T14:30:27.125Z,21
2018-11-07T14:31:29.144Z,21
2018-11-07T14:32:31.172Z,20
2018-11-07T14:33:33.206Z,20
2018-11-07T14:34:35.647Z,19
2018-11-07T14:35:37.676Z,18
2018-11-07T14:36:39.714Z,19
2018-11-07T14:37:42.039Z,19
2018-11-07T14:38:44.119Z,17
2018-11-07T14:39:46.096Z,17
2018-11-07T14:40:48.123Z,18
2018-11-07T14:41:50.152Z,16
2018-11-07T14:42:52.169Z,13
2018-11-07T14:43:55.002Z,13
2018-11-07T14:44:56.990Z,13
2018-11-07T14:45:59.029Z,13
2018-11-07T14:47:02.792Z,12
2018-11-07T14:48:04.755Z,11
2018-11-07T14:49:07.174Z,10
2018-11-07T14:50:09.474Z,11
2018-11-07T14:51:11.512Z,10
2018-11-07T14:52:21.030Z,9
2018-11-07T14:53:26.538Z,8
2018-11-07T14:54:31.591Z,7
2018-11-07T14:55:33.608Z,7
2018-11-07T14:56:35.639Z,6
2018-11-07T14:57:37.667Z,5
2018-11-07T14:58:39.712Z,6